Time;durP1;ratioP1;P1;durP2;ratioP2;P2;SDS_P1;SDS_P2;PMS_P1;PMS_P2;Temp;Humidity;BMP_temperature;BMP_pressure;BME280_temperature;BME280_humidity;BME280_pressure;Samples;Min_cycle;Max_cycle;Signal;HPM_P1;HPM_P2
2023/01/09 00:00:59;;;;;;;5.75;2.30;;;7.60;99.90;;;;;;5135790;27;20036;-64
2023/01/09 00:03:25;;;;;;;4.18;2.17;;;7.60;99.90;;;;;;5135740;27;20027;-64
2023/01/09 00:05:51;;;;;;;5.40;2.33;;;7.60;99.90;;;;;;5116975;27;20043;-64
2023/01/09 00:08:17;;;;;;;5.18;1.98;;;7.60;99.90;;;;;;5135618;27;20050;-64
2023/01/09 00:10:43;;;;;;;3.05;1.77;;;7.90;99.90;;;;;;5135598;27;20082;-64
2023/01/09 00:13:12;;;;;;;6.22;1.90;;;7.70;99.90;;;;;;5135487;27;20107;-64
2023/01/09 00:15:39;;;;;;;5.68;2.40;;;7.60;99.90;;;;;;5135373;27;20397;-63
2023/01/09 00:18:05;;;;;;;4.97;2.22;;;7.70;99.90;;;;;;5135601;27;20041;-63
2023/01/09 00:20:30;;;;;;;2.63;1.52;;;7.60;99.90;;;;;;5135529;27;20110;-63
2023/01/09 00:22:56;;;;;;;4.85;1.10;;;7.60;99.90;;;;;;5117130;27;20048;-64
2023/01/09 00:25:22;;;;;;;2.15;1.05;;;7.60;99.90;;;;;;5135479;27;20404;-63
2023/01/09 00:27:47;;;;;;;4.68;1.42;;;7.50;99.90;;;;;;5135431;27;20486;-63
2023/01/09 00:30:13;;;;;;;2.78;0.80;;;7.50;99.90;;;;;;5135371;27;20058;-63
2023/01/09 00:32:39;;;;;;;2.40;0.75;;;7.50;99.90;;;;;;5135323;27;20031;-64
2023/01/09 00:35:07;;;;;;;2.17;0.52;;;7.50;99.90;;;;;;5134999;27;20104;-63
2023/01/09 00:37:32;;;;;;;1.25;0.60;;;7.40;99.90;;;;;;5135504;27;20077;-64
2023/01/09 00:39:58;;;;;;;1.65;0.40;;;7.40;99.90;;;;;;5135018;27;20074;-63
2023/01/09 00:42:26;;;;;;;1.67;0.50;;;7.40;99.90;;;;;;5134914;27;20433;-63
2023/01/09 00:44:58;;;;;;;2.15;0.40;;;7.40;99.90;;;;;;5134900;27;20488;-64
2023/01/09 00:47:33;;;;;;;0.68;0.30;;;7.40;99.90;;;;;;5135317;27;20093;-63
2023/01/09 00:50:02;;;;;;;2.92;1.02;;;7.40;99.90;;;;;;5134663;27;20508;-64
2023/01/09 00:52:31;;;;;;;3.42;0.45;;;7.40;99.90;;;;;;5135225;27;20057;-64
2023/01/09 00:54:58;;;;;;;1.27;0.50;;;7.30;99.90;;;;;;5134716;27;20122;-64
2023/01/09 00:57:24;;;;;;;2.75;0.60;;;7.30;99.90;;;;;;5134941;27;20056;-64
2023/01/09 00:59:51;;;;;;;0.95;0.63;;;7.30;99.90;;;;;;5134745;27;20031;-63
2023/01/09 01:02:17;;;;;;;1.48;0.73;;;7.20;99.90;;;;;;5134625;27;20070;-63
2023/01/09 01:07:39;;;;;;;1.15;0.60;;;7.20;99.90;;;;;;5133347;27;20381;-64
2023/01/09 01:10:07;;;;;;;0.82;0.70;;;7.10;99.90;;;;;;5134435;27;20100;-63
2023/01/09 01:12:33;;;;;;;2.40;0.47;;;7.10;99.90;;;;;;5134485;27;20035;-64
2023/01/09 01:14:59;;;;;;;2.53;1.00;;;7.00;99.90;;;;;;5134511;27;20043;-64
2023/01/09 01:17:24;;;;;;;1.90;0.40;;;7.00;99.90;;;;;;5134266;27;20031;-64
2023/01/09 01:19:50;;;;;;;0.80;0.30;;;7.00;99.90;;;;;;5134232;27;20038;-63
2023/01/09 01:22:16;;;;;;;0.55;0.40;;;7.00;99.90;;;;;;5134274;27;20066;-63
2023/01/09 01:24:41;;;;;;;1.42;0.50;;;7.00;99.90;;;;;;5134286;27;20495;-63
2023/01/09 01:27:07;;;;;;;0.60;0.50;;;6.90;99.90;;;;;;5134437;27;20136;-64
2023/01/09 01:29:32;;;;;;;2.20;1.02;;;6.90;99.90;;;;;;5134028;27;20505;-63
2023/01/09 01:31:58;;;;;;;1.85;0.30;;;6.80;99.90;;;;;;5115859;27;20077;-64
2023/01/09 01:34:24;;;;;;;1.45;0.50;;;6.80;99.90;;;;;;5133834;27;20083;-63
2023/01/09 01:36:50;;;;;;;2.08;0.60;;;6.80;99.90;;;;;;5133766;27;20130;-64
2023/01/09 01:39:16;;;;;;;3.05;0.80;;;6.80;99.90;;;;;;5133983;27;20579;-64
2023/01/09 01:41:41;;;;;;;2.55;0.90;;;6.90;99.90;;;;;;5133928;27;20405;-63
2023/01/09 01:44:45;;;;;;;1.98;0.88;;;6.80;99.90;;;;;;5133691;27;20028;-64
2023/01/09 01:47:12;;;;;;;1.67;0.77;;;6.90;99.90;;;;;;5133678;27;20043;-64
2023/01/09 01:49:38;;;;;;;2.80;1.02;;;6.90;99.90;;;;;;5133514;27;20549;-63
2023/01/09 01:52:04;;;;;;;4.10;1.10;;;6.90;99.90;;;;;;5133725;27;20031;-63
2023/01/09 01:54:31;;;;;;;1.85;0.98;;;6.90;99.90;;;;;;5133533;27;20035;-64
2023/01/09 01:57:02;;;;;;;2.08;1.00;;;6.90;99.90;;;;;;5133605;27;20123;-63
2023/01/09 01:59:31;;;;;;;3.78;1.00;;;6.90;99.90;;;;;;5133483;27;20039;-64
2023/01/09 02:02:00;;;;;;;3.47;1.45;;;7.00;99.90;;;;;;5133863;27;20089;-63
2023/01/09 02:04:28;;;;;;;3.03;1.42;;;7.00;99.90;;;;;;5133616;27;20039;-63
2023/01/09 02:06:55;;;;;;;3.13;1.80;;;7.00;99.90;;;;;;5133420;27;20043;-64
2023/01/09 02:09:22;;;;;;;5.65;1.50;;;7.10;99.90;;;;;;5133284;27;20050;-63
2023/01/09 02:11:55;;;;;;;2.92;1.30;;;7.00;99.90;;;;;;5133190;27;20071;-63
2023/01/09 02:14:24;;;;;;;2.30;1.50;;;7.00;99.90;;;;;;5133364;27;20034;-63
2023/01/09 02:17:16;;;;;;;5.38;1.92;;;7.10;99.90;;;;;;5133483;27;20088;-63
2023/01/09 02:20:03;;;;;;;2.83;1.27;;;7.00;99.90;;;;;;5029772;28;20132;-63
2023/01/09 02:22:38;;;;;;;6.43;1.67;;;7.00;99.90;;;;;;5029892;28;20061;-63
2023/01/09 02:25:28;;;;;;;4.55;1.63;;;7.00;99.90;;;;;;5029904;28;20104;-63
2023/01/09 02:27:56;;;;;;;3.57;1.70;;;7.00;99.90;;;;;;5029875;28;20076;-63
2023/01/09 02:30:55;;;;;;;6.63;2.17;;;7.00;99.90;;;;;;5029689;28;20745;-63
2023/01/09 02:33:27;;;;;;;3.88;1.77;;;6.90;99.90;;;;;;5029754;28;20315;-63
2023/01/09 02:36:20;;;;;;;4.68;1.70;;;6.90;99.90;;;;;;5029758;28;20055;-63
2023/01/09 02:38:51;;;;;;;3.53;1.75;;;6.80;99.90;;;;;;5013169;28;20045;-64
2023/01/09 02:41:43;;;;;;;3.85;1.58;;;6.90;99.90;;;;;;5029718;28;20047;-64
2023/01/09 02:44:12;;;;;;;6.50;2.33;;;6.70;99.90;;;;;;4970749;28;20138;-63
2023/01/09 02:46:37;;;;;;;5.40;1.80;;;6.80;99.90;;;;;;4971000;28;20055;-63
2023/01/09 02:49:03;;;;;;;5.95;1.83;;;6.80;99.90;;;;;;4970756;28;20207;-63
2023/01/09 02:51:39;;;;;;;3.85;1.60;;;6.70;99.90;;;;;;4970632;28;20057;-63
2023/01/09 02:54:46;;;;;;;3.67;1.50;;;6.70;99.90;;;;;;4970932;28;20101;-63
2023/01/09 02:57:39;;;;;;;4.57;1.52;;;6.60;99.90;;;;;;4977193;28;20085;-64
2023/01/09 03:00:33;;;;;;;4.13;1.85;;;6.50;99.90;;;;;;5009285;28;20058;-63
2023/01/09 03:03:08;;;;;;;9.27;2.60;;;6.60;99.90;;;;;;5009464;28;20060;-63
2023/01/09 03:05:56;;;;;;;6.55;2.00;;;6.50;99.90;;;;;;5009661;28;20046;-64
2023/01/09 03:08:37;;;;;;;5.25;1.63;;;6.60;99.90;;;;;;5009706;28;20046;-64
2023/01/09 03:11:06;;;;;;;5.22;1.75;;;6.50;99.90;;;;;;5009645;28;20504;-64
2023/01/09 03:13:42;;;;;;;7.45;1.95;;;6.50;99.90;;;;;;5009548;28;20078;-63
2023/01/09 03:16:11;;;;;;;5.85;2.10;;;6.40;99.90;;;;;;5009692;28;20045;-63
2023/01/09 03:18:37;;;;;;;;;;;6.40;99.90;;;;;;5010201;28;20046;-64
2023/01/09 03:21:05;;;;;;;6.20;1.70;;;6.40;99.90;;;;;;5034903;28;19956;-63
2023/01/09 03:23:51;;;;;;;5.72;2.00;;;6.30;99.90;;;;;;5052553;28;20056;-63
2023/01/09 03:26:18;;;;;;;7.00;1.88;;;6.30;99.90;;;;;;5069334;28;20063;-63
2023/01/09 03:28:44;;;;;;;5.35;1.88;;;6.30;99.90;;;;;;5069062;28;20088;-63
2023/01/09 03:31:10;;;;;;;4.68;2.03;;;6.30;99.90;;;;;;5071914;28;20483;-64
2023/01/09 03:33:35;;;;;;;7.88;2.00;;;6.30;99.90;;;;;;5101133;27;20049;-63
2023/01/09 03:36:01;;;;;;;8.38;2.28;;;6.30;99.90;;;;;;5136175;27;20081;-63
2023/01/09 03:38:27;;;;;;;4.18;1.80;;;6.50;99.90;;;;;;5136348;27;20130;-64
2023/01/09 03:40:52;;;;;;;5.88;2.13;;;6.30;99.90;;;;;;5136177;27;20039;-63
2023/01/09 03:43:18;;;;;;;6.57;2.15;;;6.20;99.90;;;;;;5136173;27;20043;-64
2023/01/09 03:45:44;;;;;;;8.20;2.28;;;6.20;99.90;;;;;;5136024;27;20099;-63
2023/01/09 03:48:09;;;;;;;5.18;1.88;;;6.20;99.90;;;;;;5136149;27;20115;-63
2023/01/09 03:50:35;;;;;;;4.43;2.03;;;6.10;99.90;;;;;;5136080;27;20040;-64
2023/01/09 03:53:01;;;;;;;6.53;2.40;;;6.10;99.90;;;;;;5136103;27;20495;-64
2023/01/09 03:55:26;;;;;;;6.13;2.55;;;6.10;99.90;;;;;;5135800;27;20039;-63
2023/01/09 03:57:52;;;;;;;5.55;2.08;;;6.00;99.90;;;;;;5135943;27;20076;-64
2023/01/09 04:00:21;;;;;;;5.70;2.05;;;6.00;99.90;;;;;;5135556;27;20051;-63
2023/01/09 04:02:47;;;;;;;5.15;3.25;;;6.00;99.90;;;;;;5135785;27;20074;-63
2023/01/09 04:05:13;;;;;;;5.65;2.15;;;6.00;99.90;;;;;;5135989;27;20081;-64
2023/01/09 04:07:39;;;;;;;7.35;2.80;;;5.90;99.90;;;;;;5135530;27;20497;-64
2023/01/09 04:10:05;;;;;;;5.88;3.00;;;5.90;99.90;;;;;;5117394;27;20040;-63
2023/01/09 04:12:30;;;;;;;8.23;2.90;;;5.80;99.90;;;;;;5135681;27;20610;-64
2023/01/09 04:14:56;;;;;;;5.78;2.97;;;5.80;99.90;;;;;;5135714;27;20142;-63
2023/01/09 04:17:22;;;;;;;9.00;2.95;;;5.90;99.90;;;;;;5135649;27;20035;-64
2023/01/09 04:19:48;;;;;;;6.05;3.20;;;5.80;99.90;;;;;;5135327;27;20400;-63
2023/01/09 04:22:13;;;;;;;8.55;3.03;;;5.90;99.90;;;;;;5135447;27;20043;-64
2023/01/09 04:24:39;;;;;;;9.38;3.60;;;5.70;99.90;;;;;;5135445;27;20035;-63
2023/01/09 04:27:04;;;;;;;8.88;3.70;;;5.80;99.90;;;;;;5135297;27;20389;-63
2023/01/09 04:29:30;;;;;;;10.55;3.10;;;5.80;99.90;;;;;;5135073;27;20039;-64
2023/01/09 04:31:56;;;;;;;8.93;3.58;;;5.90;99.90;;;;;;5135219;27;20084;-64
2023/01/09 04:34:24;;;;;;;7.40;3.50;;;5.70;99.90;;;;;;5135026;27;20042;-63
2023/01/09 04:36:52;;;;;;;9.48;3.72;;;5.80;99.90;;;;;;5134911;27;20501;-64
2023/01/09 04:39:17;;;;;;;6.65;3.28;;;5.70;99.90;;;;;;5135138;27;20035;-64
2023/01/09 04:41:49;;;;;;;8.98;3.60;;;5.70;99.90;;;;;;5134784;27;20047;-64
2023/01/09 04:44:20;;;;;;;12.00;4.40;;;5.70;99.90;;;;;;5134917;27;20039;-63
2023/01/09 04:46:46;;;;;;;9.02;4.03;;;5.60;99.90;;;;;;5134907;27;20039;-63
2023/01/09 04:49:13;;;;;;;10.85;4.07;;;5.70;99.90;;;;;;5134881;27;20102;-63
2023/01/09 04:51:38;;;;;;;8.43;4.28;;;5.60;99.90;;;;;;5134929;27;20045;-64
2023/01/09 04:54:04;;;;;;;8.10;4.47;;;5.70;99.90;;;;;;5134631;27;20034;-64
2023/01/09 04:56:30;;;;;;;10.35;4.25;;;5.60;99.90;;;;;;5134711;27;20394;-63
2023/01/09 04:58:55;;;;;;;11.50;3.80;;;5.50;99.90;;;;;;5134841;27;20087;-63
2023/01/09 05:01:22;;;;;;;11.23;4.88;;;5.50;99.90;;;;;;5134881;27;20035;-64
2023/01/09 05:03:47;;;;;;;8.68;4.55;;;5.60;99.90;;;;;;5134526;27;20043;-63
2023/01/09 05:06:13;;;;;;;11.85;4.53;;;5.60;99.90;;;;;;5134624;27;20035;-63
2023/01/09 05:08:39;;;;;;;11.93;5.43;;;5.40;99.90;;;;;;5134232;27;20046;-64
2023/01/09 05:11:04;;;;;;;8.43;4.50;;;5.40;99.90;;;;;;5134836;27;20031;-63
2023/01/09 05:13:30;;;;;;;11.05;5.43;;;5.40;99.90;;;;;;5134481;27;20366;-63
2023/01/09 05:15:56;;;;;;;12.07;5.30;;;5.50;99.90;;;;;;5134361;27;20114;-64
2023/01/09 05:18:21;;;;;;;12.55;5.90;;;5.50;99.90;;;;;;5134392;27;20035;-64
2023/01/09 05:20:47;;;;;;;10.75;6.00;;;5.40;99.90;;;;;;5134226;27;20192;-64
2023/01/09 05:23:12;;;;;;;12.68;6.00;;;5.50;99.90;;;;;;5134401;27;20072;-64
2023/01/09 05:25:38;;;;;;;12.80;5.80;;;5.30;99.90;;;;;;5134283;27;20640;-64
2023/01/09 05:28:04;;;;;;;16.55;7.80;;;5.40;99.90;;;;;;5134287;27;20039;-64
2023/01/09 05:30:29;;;;;;;10.77;6.80;;;5.50;99.90;;;;;;5134101;27;20035;-64
2023/01/09 05:32:55;;;;;;;15.50;8.18;;;5.60;99.90;;;;;;5134136;27;20110;-63
2023/01/09 05:35:21;;;;;;;13.93;8.13;;;5.60;99.90;;;;;;5133850;27;20128;-64
2023/01/09 05:37:47;;;;;;;16.70;8.57;;;5.50;99.90;;;;;;5133904;27;20066;-64
2023/01/09 05:40:13;;;;;;;15.95;9.10;;;5.60;99.90;;;;;;5133705;27;20115;-64
2023/01/09 05:42:39;;;;;;;16.17;9.65;;;5.50;99.90;;;;;;5132936;27;20374;-63
2023/01/09 05:45:05;;;;;;;15.13;9.60;;;5.60;99.90;;;;;;5133764;27;20489;-63
2023/01/09 05:47:31;;;;;;;15.00;9.48;;;5.70;99.90;;;;;;5133678;27;20548;-63
2023/01/09 05:49:57;;;;;;;17.13;10.20;;;5.60;99.90;;;;;;5133530;27;20137;-63
2023/01/09 05:52:23;;;;;;;17.45;11.23;;;5.60;99.90;;;;;;5133048;27;20071;-63
2023/01/09 05:54:48;;;;;;;20.88;12.02;;;5.70;99.90;;;;;;5115296;27;20035;-64
2023/01/09 05:57:14;;;;;;;19.15;11.85;;;5.80;99.90;;;;;;5133499;27;20038;-64
2023/01/09 05:59:40;;;;;;;16.10;12.20;;;5.70;99.90;;;;;;5133618;27;20035;-64
2023/01/09 06:02:05;;;;;;;17.50;12.50;;;5.80;99.90;;;;;;5133554;27;20045;-64
2023/01/09 06:04:31;;;;;;;17.60;12.85;;;5.80;99.90;;;;;;5133442;27;20118;-64
2023/01/09 06:06:57;;;;;;;20.40;12.73;;;5.90;99.90;;;;;;5133562;27;20073;-64
2023/01/09 06:09:22;;;;;;;22.75;14.13;;;5.90;99.90;;;;;;5133266;27;20035;-64
2023/01/09 06:11:48;;;;;;;23.20;14.23;;;6.00;99.90;;;;;;5133429;27;20039;-63
2023/01/09 06:14:14;;;;;;;21.73;14.68;;;5.90;99.90;;;;;;5131491;27;20112;-63
2023/01/09 06:16:39;;;;;;;20.73;13.68;;;5.90;99.90;;;;;;5131429;27;20423;-64
2023/01/09 06:19:05;;;;;;;18.77;13.93;;;5.90;99.90;;;;;;5132325;27;20035;-63
2023/01/09 06:21:31;;;;;;;19.13;14.50;;;6.00;99.90;;;;;;5133183;27;20385;-64
2023/01/09 06:23:57;;;;;;;21.55;14.25;;;5.90;99.90;;;;;;5133067;27;20046;-63
2023/01/09 06:26:24;;;;;;;22.10;14.05;;;5.90;99.90;;;;;;5132917;27;20039;-64
2023/01/09 06:28:49;;;;;;;22.05;14.63;;;6.00;99.90;;;;;;5132905;27;20050;-63
2023/01/09 06:31:15;;;;;;;20.15;13.60;;;6.10;99.90;;;;;;5133140;27;20039;-63
2023/01/09 06:33:41;;;;;;;22.13;14.20;;;6.10;99.90;;;;;;5132801;27;20037;-63
2023/01/09 06:36:07;;;;;;;21.13;13.50;;;6.00;99.90;;;;;;5132776;27;20135;-64
2023/01/09 06:38:32;;;;;;;20.85;13.05;;;6.10;99.90;;;;;;5132692;27;20047;-64
2023/01/09 06:40:58;;;;;;;17.98;13.35;;;6.10;99.90;;;;;;5132711;27;20477;-63
2023/01/09 06:43:24;;;;;;;22.35;13.43;;;6.10;99.90;;;;;;5132224;27;20038;-63
2023/01/09 06:45:49;;;;;;;19.05;12.88;;;6.10;99.90;;;;;;5131089;27;20043;-64
2023/01/09 06:48:15;;;;;;;19.13;12.88;;;6.20;99.90;;;;;;5131644;27;20740;-63
2023/01/09 06:50:41;;;;;;;24.35;13.27;;;6.10;99.90;;;;;;5132774;27;20039;-64
2023/01/09 06:53:06;;;;;;;18.42;12.15;;;6.20;99.90;;;;;;5132621;27;20073;-63
2023/01/09 06:55:32;;;;;;;22.70;12.77;;;6.10;99.90;;;;;;5132825;28;20035;-64
2023/01/09 06:57:58;;;;;;;16.08;12.73;;;6.10;99.90;;;;;;5132803;28;20548;-63
2023/01/09 07:00:24;;;;;;;19.95;13.07;;;6.20;99.90;;;;;;5132432;28;20062;-64
2023/01/09 07:02:49;;;;;;;19.40;13.38;;;6.10;99.90;;;;;;5132541;28;20039;-64
2023/01/09 07:05:15;;;;;;;22.25;13.02;;;6.10;99.90;;;;;;5134222;27;20039;-63
2023/01/09 07:07:41;;;;;;;19.08;12.00;;;6.10;99.90;;;;;;5136837;27;20461;-64
2023/01/09 07:10:09;;;;;;;19.90;13.40;;;6.20;99.90;;;;;;5136947;27;20035;-64
2023/01/09 07:12:35;;;;;;;21.30;13.00;;;6.10;99.90;;;;;;5136790;27;20036;-63
2023/01/09 07:15:00;;;;;;;18.15;13.35;;;6.00;99.90;;;;;;5134962;27;20046;-64
2023/01/09 07:17:26;;;;;;;17.63;12.45;;;6.00;99.90;;;;;;5134883;27;20027;-63
2023/01/09 07:19:52;;;;;;;17.80;12.15;;;6.10;99.90;;;;;;5136626;27;20500;-64
2023/01/09 07:22:18;;;;;;;18.55;12.05;;;6.10;99.90;;;;;;5136466;27;20385;-63
2023/01/09 07:24:43;;;;;;;23.23;11.95;;;6.10;99.90;;;;;;5136477;27;20039;-63
2023/01/09 07:27:10;;;;;;;16.60;11.57;;;6.10;99.90;;;;;;5136516;27;20031;-63
2023/01/09 07:29:36;;;;;;;20.65;11.73;;;6.70;99.90;;;;;;5136327;27;20068;-64
2023/01/09 07:32:02;;;;;;;22.45;11.63;;;6.00;99.90;;;;;;5136421;27;20043;-64
2023/01/09 07:34:28;;;;;;;16.95;11.25;;;6.10;99.90;;;;;;5136462;27;20039;-61
2023/01/09 07:36:54;;;;;;;16.45;11.60;;;6.00;99.90;;;;;;5136408;27;20061;-61
2023/01/09 07:39:19;;;;;;;21.00;10.98;;;6.10;99.90;;;;;;5136705;27;20050;-61
2023/01/09 07:41:45;;;;;;;17.25;10.27;;;6.00;99.90;;;;;;5136389;27;20037;-62
2023/01/09 07:44:12;;;;;;;18.35;11.00;;;6.00;99.90;;;;;;5135164;27;20039;-61
2023/01/09 07:46:37;;;;;;;12.93;10.07;;;6.00;99.90;;;;;;5134633;27;20041;-61
2023/01/09 07:49:03;;;;;;;14.40;10.48;;;6.00;99.90;;;;;;5136004;27;20121;-61
2023/01/09 07:51:29;;;;;;;19.42;10.52;;;6.00;99.90;;;;;;5135709;27;20473;-62
2023/01/09 07:53:54;;;;;;;15.38;9.90;;;6.00;99.90;;;;;;5135479;27;20038;-61
2023/01/09 07:56:20;;;;;;;14.80;9.70;;;6.00;99.90;;;;;;5136076;27;20027;-61
2023/01/09 07:58:46;;;;;;;20.55;9.70;;;5.90;99.90;;;;;;5135943;27;20071;-62
2023/01/09 08:01:11;;;;;;;15.95;8.98;;;5.90;99.90;;;;;;5135845;27;20043;-61
2023/01/09 08:03:37;;;;;;;12.52;8.98;;;5.90;99.90;;;;;;5135939;27;20031;-62
2023/01/09 08:06:03;;;;;;;14.32;8.15;;;5.80;99.90;;;;;;5135615;27;20537;-61
2023/01/09 08:08:29;;;;;;;13.68;7.50;;;5.80;99.90;;;;;;5117305;27;20039;-62
2023/01/09 08:10:55;;;;;;;12.85;7.15;;;5.70;99.90;;;;;;5135713;27;20046;-61
2023/01/09 08:13:21;;;;;;;17.02;7.80;;;5.70;99.90;;;;;;5135239;27;20492;-62
2023/01/09 08:15:46;;;;;;;10.35;7.47;;;5.70;99.90;;;;;;5116804;27;20039;-61
2023/01/09 08:18:12;;;;;;;11.88;7.88;;;5.60;99.90;;;;;;5117141;27;20097;-61
2023/01/09 08:20:37;;;;;;;11.85;7.72;;;5.70;99.90;;;;;;5135664;27;20046;-61
2023/01/09 08:23:03;;;;;;;12.13;7.35;;;5.70;99.90;;;;;;5135619;27;20381;-62
2023/01/09 08:25:29;;;;;;;14.40;7.65;;;5.70;99.90;;;;;;5135547;27;20031;-61
2023/01/09 08:27:54;;;;;;;15.50;7.65;;;5.70;99.90;;;;;;5135371;27;20095;-61
2023/01/09 08:30:20;;;;;;;14.15;7.13;;;5.70;99.90;;;;;;5135216;27;20035;-61
2023/01/09 08:32:52;;;;;;;12.52;7.95;;;5.80;99.90;;;;;;5135273;27;20031;-61
2023/01/09 08:35:19;;;;;;;11.27;6.88;;;5.90;99.90;;;;;;5134879;27;20043;-61
2023/01/09 08:37:46;;;;;;;11.27;6.80;;;5.80;99.90;;;;;;5135343;27;20122;-62
2023/01/09 08:40:13;;;;;;;13.35;6.45;;;5.80;99.90;;;;;;5135179;27;20075;-61
2023/01/09 08:48:07;;;;;;;13.77;7.20;;;5.80;99.90;;;;;;5135106;27;20121;-62
2023/01/09 08:50:33;;;;;;;17.02;6.95;;;5.80;99.90;;;;;;5134945;27;20039;-61
2023/01/09 08:52:58;;;;;;;11.38;6.43;;;5.90;99.90;;;;;;5134709;27;20095;-61
2023/01/09 08:55:24;;;;;;;11.98;6.85;;;6.00;99.90;;;;;;5134833;27;20035;-61
2023/01/09 08:57:51;;;;;;;13.75;6.60;;;5.90;99.90;;;;;;5134671;27;20043;-61
2023/01/09 09:00:18;;;;;;;9.57;6.07;;;6.00;99.90;;;;;;5134672;27;20049;-61
2023/01/09 09:02:44;;;;;;;9.95;6.05;;;6.10;99.90;;;;;;5134687;27;20085;-61
2023/01/09 09:05:10;;;;;;;13.95;5.95;;;6.00;99.90;;;;;;5134807;27;20475;-62
2023/01/09 09:07:36;;;;;;;9.75;5.68;;;6.00;99.90;;;;;;5134585;27;20049;-61
2023/01/09 09:10:02;;;;;;;14.10;5.85;;;6.10;99.90;;;;;;5134304;27;20118;-62
2023/01/09 09:12:27;;;;;;;9.05;5.35;;;6.10;99.90;;;;;;5134619;27;20043;-61
2023/01/09 09:15:11;;;;;;;8.48;5.03;;;6.20;99.90;;;;;;5134591;27;20043;-61
2023/01/09 09:17:39;;;;;;;11.95;5.07;;;6.20;99.90;;;;;;5116120;27;20130;-62
2023/01/09 09:20:05;;;;;;;10.80;4.95;;;6.20;99.90;;;;;;5134140;27;20057;-61
2023/01/09 09:22:31;;;;;;;12.18;4.95;;;6.30;99.90;;;;;;5134339;27;20039;-61
2023/01/09 09:24:57;;;;;;;11.25;5.28;;;6.20;99.90;;;;;;5134155;27;20126;-61
2023/01/09 09:27:22;;;;;;;8.23;4.68;;;6.30;99.90;;;;;;5114783;28;20049;-62
2023/01/09 09:29:48;;;;;;;8.48;4.35;;;6.30;99.90;;;;;;5134203;27;20035;-61
2023/01/09 09:32:14;;;;;;;8.00;4.80;;;6.40;99.90;;;;;;5115886;27;20544;-61
2023/01/09 09:34:39;;;;;;;10.77;4.50;;;6.40;99.90;;;;;;5133917;27;20396;-62
2023/01/09 09:37:05;;;;;;;9.60;4.70;;;6.40;99.90;;;;;;5115856;27;20122;-61
2023/01/09 09:39:31;;;;;;;6.95;4.55;;;6.40;99.90;;;;;;5133939;27;20039;-62
2023/01/09 09:45:27;;;;;;;11.32;4.13;;;6.40;99.90;;;;;;5132347;27;20043;-61
2023/01/09 09:48:08;;;;;;;11.70;4.05;;;6.50;99.90;;;;;;5132581;27;20035;-62
2023/01/09 09:51:07;;;;;;;7.20;4.03;;;6.50;99.90;;;;;;5133330;27;20168;-61
2023/01/09 09:53:39;;;;;;;7.57;4.28;;;6.60;99.90;;;;;;5133802;27;20047;-61
2023/01/09 09:56:06;;;;;;;8.82;4.07;;;6.50;99.90;;;;;;5133650;27;20426;-61
2023/01/09 09:58:38;;;;;;;9.60;3.50;;;6.50;99.90;;;;;;5133393;27;20479;-61
2023/01/09 10:01:06;;;;;;;9.55;4.03;;;6.50;99.90;;;;;;5133691;27;20074;-61
2023/01/09 10:03:57;;;;;;;10.00;4.22;;;6.50;99.90;;;;;;5133551;27;20477;-61
2023/01/09 10:06:31;;;;;;;11.20;3.83;;;6.50;99.90;;;;;;5133454;27;20562;-61
2023/01/09 10:09:15;;;;;;;8.02;3.72;;;6.60;99.90;;;;;;5133849;27;20106;-61
2023/01/09 10:12:09;;;;;;;7.25;4.07;;;6.70;99.90;;;;;;5133362;27;20080;-61
2023/01/09 10:14:35;;;;;;;7.80;3.53;;;6.60;99.90;;;;;;5132650;27;20074;-61
2023/01/09 10:17:10;;;;;;;8.52;3.80;;;6.70;99.90;;;;;;5133189;27;20071;-61
2023/01/09 10:20:04;;;;;;;16.38;3.97;;;6.70;99.90;;;;;;5133181;27;20118;-60
2023/01/09 10:22:42;;;;;;;11.98;4.00;;;6.80;99.90;;;;;;5133274;27;20119;-61
2023/01/09 10:25:29;;;;;;;7.97;3.47;;;6.80;99.90;;;;;;5133153;27;20131;-61
2023/01/09 10:28:18;;;;;;;13.45;4.28;;;6.80;99.90;;;;;;5132570;27;20039;-61
2023/01/09 10:30:44;;;;;;;7.97;3.55;;;6.80;99.90;;;;;;5133091;27;20125;-61
2023/01/09 10:33:21;;;;;;;7.78;3.63;;;6.90;99.90;;;;;;5132964;27;20122;-61
2023/01/09 10:36:16;;;;;;;9.13;3.63;;;6.90;99.90;;;;;;5131924;27;20083;-61
2023/01/09 10:38:46;;;;;;;7.28;3.70;;;6.90;99.90;;;;;;5132781;27;20043;-60
2023/01/09 10:41:23;;;;;;;7.10;3.38;;;7.00;99.90;;;;;;5133009;27;20043;-61
2023/01/09 10:43:58;;;;;;;7.50;3.92;;;6.90;99.90;;;;;;5132832;27;20043;-61
2023/01/09 10:46:28;;;;;;;9.55;3.58;;;6.90;99.90;;;;;;5132709;27;20043;-61
2023/01/09 10:48:59;;;;;;;3.90;3.40;;;7.00;99.90;;;;;;5114407;27;20042;-61
2023/01/09 10:51:35;;;;;;;6.05;3.70;;;7.10;99.90;;;;;;5114421;28;20071;-61
2023/01/09 10:54:04;;;;;;;4.78;3.15;;;7.10;99.90;;;;;;5132887;27;20070;-61
2023/01/09 10:56:37;;;;;;;5.07;2.87;;;7.10;99.90;;;;;;5132737;28;20043;-61
2023/01/09 10:59:03;;;;;;;6.60;3.38;;;7.20;99.90;;;;;;5114322;28;20435;-61
2023/01/09 11:01:32;;;;;;;10.30;3.42;;;7.20;99.90;;;;;;5132755;28;20043;-60
2023/01/09 11:04:00;;;;;;;7.30;3.65;;;7.20;99.90;;;;;;5132665;28;20039;-60
2023/01/09 11:06:35;;;;;;;6.15;3.17;;;7.30;99.90;;;;;;5132667;28;20047;-60
2023/01/09 11:09:01;;;;;;;6.43;3.10;;;7.30;99.90;;;;;;5132674;28;20126;-61
2023/01/09 11:11:36;;;;;;;8.63;3.50;;;7.30;99.90;;;;;;5132705;28;20459;-61
2023/01/09 11:14:30;;;;;;;5.43;3.17;;;7.30;99.90;;;;;;5132531;28;20100;-60
2023/01/09 11:16:57;;;;;;;8.30;3.42;;;7.30;99.90;;;;;;5132496;28;20058;-61
2023/01/09 11:19:24;;;;;;;6.13;3.28;;;7.30;99.90;;;;;;5132356;28;20481;-61
2023/01/09 11:21:49;;;;;;;12.00;3.40;;;7.40;99.90;;;;;;5132270;28;20043;-61
2023/01/09 11:24:15;;;;;;;10.20;3.42;;;7.40;99.90;;;;;;5132395;28;20418;-61
2023/01/09 11:26:41;;;;;;;6.72;3.70;;;7.30;99.90;;;;;;5132256;28;20039;-60
2023/01/09 11:29:11;;;;;;;6.88;3.15;;;7.30;99.90;;;;;;5132179;28;20045;-61
2023/01/09 11:31:38;;;;;;;8.20;3.67;;;7.40;99.90;;;;;;5132199;28;20473;-60
2023/01/09 11:34:14;;;;;;;10.13;4.30;;;7.30;99.90;;;;;;5132329;28;20027;-61
2023/01/09 11:36:40;;;;;;;8.02;3.50;;;7.40;99.90;;;;;;5114014;28;20058;-60
2023/01/09 11:39:22;;;;;;;8.80;3.90;;;7.30;99.90;;;;;;5132595;28;20107;-61
2023/01/09 11:41:55;;;;;;;8.43;3.67;;;7.40;99.90;;;;;;5132284;28;20096;-60
2023/01/09 11:44:22;;;;;;;7.63;3.60;;;7.30;99.90;;;;;;5132420;28;20054;-60
2023/01/09 11:46:48;;;;;;;7.45;3.40;;;7.30;99.90;;;;;;5132258;28;20051;-61
2023/01/09 11:49:16;;;;;;;11.48;4.20;;;7.30;99.90;;;;;;5132140;28;20111;-60
2023/01/09 11:51:43;;;;;;;8.63;3.58;;;7.40;99.90;;;;;;5134744;27;20053;-60
2023/01/09 11:54:26;;;;;;;10.13;3.95;;;7.30;99.90;;;;;;5136355;27;20079;-61
2023/01/09 11:56:53;;;;;;;9.77;4.05;;;7.30;99.90;;;;;;5135982;27;20084;-60
2023/01/09 11:59:21;;;;;;;5.65;3.65;;;7.30;99.90;;;;;;5135917;27;20050;-60
2023/01/09 12:01:52;;;;;;;7.28;3.83;;;7.30;99.90;;;;;;5135995;27;20043;-60
2023/01/09 12:04:40;;;;;;;7.93;4.53;;;7.40;99.90;;;;;;5136189;27;20540;-61
2023/01/09 12:07:24;;;;;;;7.07;4.72;;;7.40;99.90;;;;;;5117737;27;20146;-60
2023/01/09 12:09:55;;;;;;;10.00;4.85;;;7.30;99.90;;;;;;5135538;27;20039;-60
2023/01/09 12:12:38;;;;;;;7.25;4.13;;;7.30;99.90;;;;;;5136111;27;20162;-60
2023/01/09 12:15:44;;;;;;;8.18;3.95;;;7.40;99.90;;;;;;5135541;27;20039;-60
2023/01/09 12:18:38;;;;;;;8.48;4.60;;;7.30;99.90;;;;;;5135430;27;20031;-60
2023/01/09 12:21:35;;;;;;;5.97;4.32;;;7.30;99.90;;;;;;5135593;27;20112;-60
2023/01/09 12:24:47;;;;;;;10.82;4.57;;;7.30;99.90;;;;;;5117325;27;20381;-60
2023/01/09 12:27:18;;;;;;;12.43;5.20;;;7.30;99.90;;;;;;5116673;27;20055;-60
2023/01/09 12:30:16;;;;;;;7.88;4.63;;;7.30;99.90;;;;;;5135322;27;20433;-60
2023/01/09 12:32:56;;;;;;;9.25;4.95;;;7.20;99.90;;;;;;5135290;27;20042;-60
2023/01/09 12:35:49;;;;;;;9.35;4.90;;;7.30;99.90;;;;;;5116781;27;20054;-60
2023/01/09 12:38:26;;;;;;;10.27;5.53;;;7.30;99.90;;;;;;5135597;27;20090;-60
2023/01/09 12:41:13;;;;;;;11.93;5.00;;;7.30;99.90;;;;;;5135160;27;20096;-60
2023/01/09 12:43:57;;;;;;;8.27;5.05;;;7.30;99.90;;;;;;5135204;27;20184;-60
2023/01/09 12:46:45;;;;;;;11.90;5.45;;;7.30;99.90;;;;;;5135244;27;20515;-60
2023/01/09 12:49:32;;;;;;;9.93;5.53;;;7.30;99.90;;;;;;5134812;27;20043;-60
2023/01/09 12:52:10;;;;;;;9.90;5.70;;;7.40;99.90;;;;;;5135086;27;20062;-60
2023/01/09 12:54:48;;;;;;;9.70;5.60;;;7.30;99.90;;;;;;5135034;27;20039;-60
2023/01/09 12:57:37;;;;;;;11.95;5.82;;;7.30;99.90;;;;;;5134845;27;20039;-61
2023/01/09 13:00:14;;;;;;;9.68;5.97;;;7.40;99.90;;;;;;5134740;27;20031;-60
2023/01/09 13:03:10;;;;;;;12.65;6.55;;;7.40;99.90;;;;;;5134529;27;20550;-61
2023/01/09 13:05:44;;;;;;;12.75;6.22;;;7.40;99.90;;;;;;5134507;27;20508;-60
2023/01/09 13:08:30;;;;;;;11.68;6.05;;;7.30;99.90;;;;;;5134379;27;20042;-61
2023/01/09 13:11:06;;;;;;;11.13;6.47;;;7.40;99.90;;;;;;5134476;27;20043;-61
2023/01/09 13:13:49;;;;;;;14.30;7.10;;;7.40;99.90;;;;;;5116291;27;20494;-60
2023/01/09 13:16:19;;;;;;;10.15;7.07;;;7.40;99.90;;;;;;5134468;27;20039;-60
2023/01/09 13:19:21;;;;;;;11.75;6.65;;;7.40;99.90;;;;;;5115826;27;20062;-60